sensor_id;sensor_type;location;lat;lon;timestamp;P1;durP1;ratioP1;P2;durP2;ratioP2
20415;SDS011;10367;52.202;5.996;2022-07-01T00:00:53;19.70;;;17.43;;
20415;SDS011;10367;52.202;5.996;2022-07-01T00:03:21;23.17;;;17.33;;
20415;SDS011;10367;52.202;5.996;2022-07-01T00:05:52;20.73;;;17.67;;
20415;SDS011;10367;52.202;5.996;2022-07-01T00:08:20;23.80;;;19.60;;
20415;SDS011;10367;52.202;5.996;2022-07-01T00:10:52;21.33;;;18.33;;
20415;SDS011;10367;52.202;5.996;2022-07-01T00:13:21;21.53;;;17.87;;
20415;SDS011;10367;52.202;5.996;2022-07-01T00:15:49;23.87;;;19.47;;
20415;SDS011;10367;52.202;5.996;2022-07-01T00:18:18;21.40;;;17.47;;
20415;SDS011;10367;52.202;5.996;2022-07-01T00:20:48;28.20;;;20.17;;
20415;SDS011;10367;52.202;5.996;2022-07-01T00:23:19;24.17;;;19.83;;
20415;SDS011;10367;52.202;5.996;2022-07-01T00:25:48;20.83;;;18.27;;
20415;SDS011;10367;52.202;5.996;2022-07-01T00:28:23;22.83;;;18.63;;
20415;SDS011;10367;52.202;5.996;2022-07-01T00:30:52;27.00;;;20.20;;
20415;SDS011;10367;52.202;5.996;2022-07-01T00:33:24;26.90;;;19.37;;
20415;SDS011;10367;52.202;5.996;2022-07-01T00:35:53;29.87;;;21.27;;
20415;SDS011;10367;52.202;5.996;2022-07-01T00:38:27;30.57;;;21.60;;
20415;SDS011;10367;52.202;5.996;2022-07-01T00:40:56;30.37;;;22.57;;
20415;SDS011;10367;52.202;5.996;2022-07-01T00:43:25;34.10;;;22.07;;
20415;SDS011;10367;52.202;5.996;2022-07-01T00:46:20;28.60;;;20.87;;
20415;SDS011;10367;52.202;5.996;2022-07-01T00:48:51;26.17;;;20.43;;
20415;SDS011;10367;52.202;5.996;2022-07-01T00:51:22;27.73;;;20.20;;
20415;SDS011;10367;52.202;5.996;2022-07-01T00:53:53;24.90;;;19.03;;
20415;SDS011;10367;52.202;5.996;2022-07-01T00:56:26;30.67;;;22.37;;
20415;SDS011;10367;52.202;5.996;2022-07-01T00:58:55;27.83;;;21.07;;
20415;SDS011;10367;52.202;5.996;2022-07-01T01:01:24;29.73;;;21.30;;
20415;SDS011;10367;52.202;5.996;2022-07-01T01:03:52;26.37;;;21.47;;
20415;SDS011;10367;52.202;5.996;2022-07-01T01:06:22;27.77;;;21.90;;
20415;SDS011;10367;52.202;5.996;2022-07-01T01:08:52;27.60;;;21.30;;
20415;SDS011;10367;52.202;5.996;2022-07-01T01:11:21;28.43;;;20.90;;
20415;SDS011;10367;52.202;5.996;2022-07-01T01:13:50;23.83;;;20.53;;
20415;SDS011;10367;52.202;5.996;2022-07-01T01:16:20;28.27;;;21.13;;
20415;SDS011;10367;52.202;5.996;2022-07-01T01:18:53;27.27;;;20.87;;
20415;SDS011;10367;52.202;5.996;2022-07-01T01:21:24;27.50;;;21.43;;
20415;SDS011;10367;52.202;5.996;2022-07-01T01:23:53;28.67;;;21.17;;
20415;SDS011;10367;52.202;5.996;2022-07-01T01:26:21;24.33;;;19.50;;
20415;SDS011;10367;52.202;5.996;2022-07-01T01:28:52;31.57;;;22.47;;
20415;SDS011;10367;52.202;5.996;2022-07-01T01:31:26;26.00;;;20.23;;
20415;SDS011;10367;52.202;5.996;2022-07-01T01:33:57;31.83;;;22.67;;
20415;SDS011;10367;52.202;5.996;2022-07-01T01:36:28;32.27;;;21.67;;
20415;SDS011;10367;52.202;5.996;2022-07-01T01:38:59;29.13;;;21.43;;
20415;SDS011;10367;52.202;5.996;2022-07-01T01:41:31;29.50;;;21.27;;
20415;SDS011;10367;52.202;5.996;2022-07-01T01:44:00;33.33;;;21.27;;
20415;SDS011;10367;52.202;5.996;2022-07-01T01:46:31;31.27;;;23.00;;
20415;SDS011;10367;52.202;5.996;2022-07-01T01:49:02;27.97;;;22.73;;
20415;SDS011;10367;52.202;5.996;2022-07-01T01:51:32;28.03;;;21.27;;
20415;SDS011;10367;52.202;5.996;2022-07-01T01:54:02;29.43;;;21.57;;
20415;SDS011;10367;52.202;5.996;2022-07-01T01:56:31;30.33;;;22.73;;
20415;SDS011;10367;52.202;5.996;2022-07-01T01:58:59;32.43;;;21.83;;
20415;SDS011;10367;52.202;5.996;2022-07-01T02:01:31;34.53;;;23.47;;
20415;SDS011;10367;52.202;5.996;2022-07-01T02:04:00;34.30;;;23.57;;
20415;SDS011;10367;52.202;5.996;2022-07-01T02:06:31;33.67;;;23.53;;
20415;SDS011;10367;52.202;5.996;2022-07-01T02:09:04;35.03;;;24.63;;
20415;SDS011;10367;52.202;5.996;2022-07-01T02:11:33;40.43;;;25.47;;
20415;SDS011;10367;52.202;5.996;2022-07-01T02:14:02;33.57;;;23.03;;
20415;SDS011;10367;52.202;5.996;2022-07-01T02:16:31;34.50;;;24.27;;
20415;SDS011;10367;52.202;5.996;2022-07-01T02:19:00;35.07;;;25.13;;
20415;SDS011;10367;52.202;5.996;2022-07-01T02:21:28;36.27;;;23.80;;
20415;SDS011;10367;52.202;5.996;2022-07-01T02:24:01;34.13;;;24.63;;
20415;SDS011;10367;52.202;5.996;2022-07-01T02:26:30;35.47;;;23.87;;
20415;SDS011;10367;52.202;5.996;2022-07-01T02:29:02;34.53;;;23.67;;
20415;SDS011;10367;52.202;5.996;2022-07-01T02:31:31;34.77;;;23.10;;
20415;SDS011;10367;52.202;5.996;2022-07-01T02:34:00;34.70;;;22.63;;
20415;SDS011;10367;52.202;5.996;2022-07-01T02:36:30;40.17;;;25.37;;
20415;SDS011;10367;52.202;5.996;2022-07-01T02:38:59;34.97;;;23.50;;
20415;SDS011;10367;52.202;5.996;2022-07-01T02:41:29;33.33;;;21.50;;
20415;SDS011;10367;52.202;5.996;2022-07-01T02:43:58;36.50;;;23.43;;
20415;SDS011;10367;52.202;5.996;2022-07-01T02:46:27;38.77;;;23.33;;
20415;SDS011;10367;52.202;5.996;2022-07-01T02:48:56;34.70;;;23.23;;
20415;SDS011;10367;52.202;5.996;2022-07-01T02:51:24;37.20;;;23.50;;
20415;SDS011;10367;52.202;5.996;2022-07-01T02:53:54;35.30;;;23.40;;
20415;SDS011;10367;52.202;5.996;2022-07-01T02:56:25;42.13;;;24.27;;
20415;SDS011;10367;52.202;5.996;2022-07-01T02:58:55;40.57;;;24.27;;
20415;SDS011;10367;52.202;5.996;2022-07-01T03:01:24;37.07;;;24.17;;
20415;SDS011;10367;52.202;5.996;2022-07-01T03:03:53;39.13;;;24.93;;
20415;SDS011;10367;52.202;5.996;2022-07-01T03:06:23;31.67;;;21.80;;
20415;SDS011;10367;52.202;5.996;2022-07-01T03:08:52;38.47;;;24.87;;
20415;SDS011;10367;52.202;5.996;2022-07-01T03:11:20;43.47;;;26.17;;
20415;SDS011;10367;52.202;5.996;2022-07-01T03:13:49;43.83;;;25.30;;
20415;SDS011;10367;52.202;5.996;2022-07-01T03:16:19;38.20;;;25.13;;
20415;SDS011;10367;52.202;5.996;2022-07-01T03:18:48;46.60;;;26.70;;
20415;SDS011;10367;52.202;5.996;2022-07-01T03:21:17;37.93;;;25.37;;
20415;SDS011;10367;52.202;5.996;2022-07-01T03:23:46;41.27;;;24.77;;
20415;SDS011;10367;52.202;5.996;2022-07-01T03:26:15;43.83;;;25.57;;
20415;SDS011;10367;52.202;5.996;2022-07-01T03:28:45;37.40;;;25.57;;
20415;SDS011;10367;52.202;5.996;2022-07-01T03:31:15;35.73;;;23.60;;
20415;SDS011;10367;52.202;5.996;2022-07-01T03:33:47;36.33;;;25.00;;
20415;SDS011;10367;52.202;5.996;2022-07-01T03:36:16;38.37;;;24.33;;
20415;SDS011;10367;52.202;5.996;2022-07-01T03:38:45;40.37;;;24.30;;
20415;SDS011;10367;52.202;5.996;2022-07-01T03:41:14;39.00;;;25.03;;
20415;SDS011;10367;52.202;5.996;2022-07-01T03:43:43;36.43;;;24.17;;
20415;SDS011;10367;52.202;5.996;2022-07-01T03:46:11;43.07;;;25.60;;
20415;SDS011;10367;52.202;5.996;2022-07-01T03:48:40;34.23;;;23.63;;
20415;SDS011;10367;52.202;5.996;2022-07-01T03:51:12;36.00;;;24.20;;
20415;SDS011;10367;52.202;5.996;2022-07-01T03:53:40;37.67;;;22.40;;
20415;SDS011;10367;52.202;5.996;2022-07-01T03:56:26;42.93;;;25.63;;
20415;SDS011;10367;52.202;5.996;2022-07-01T03:58:55;46.77;;;27.30;;
20415;SDS011;10367;52.202;5.996;2022-07-01T04:01:24;41.20;;;25.63;;
20415;SDS011;10367;52.202;5.996;2022-07-01T04:03:52;37.50;;;24.37;;
20415;SDS011;10367;52.202;5.996;2022-07-01T04:06:23;50.20;;;28.43;;
20415;SDS011;10367;52.202;5.996;2022-07-01T04:08:52;42.53;;;26.57;;
20415;SDS011;10367;52.202;5.996;2022-07-01T04:11:24;38.40;;;25.47;;
20415;SDS011;10367;52.202;5.996;2022-07-01T04:13:56;40.60;;;25.20;;
20415;SDS011;10367;52.202;5.996;2022-07-01T04:16:24;38.40;;;24.97;;
20415;SDS011;10367;52.202;5.996;2022-07-01T04:18:53;36.60;;;24.50;;
20415;SDS011;10367;52.202;5.996;2022-07-01T04:21:23;44.97;;;26.90;;
20415;SDS011;10367;52.202;5.996;2022-07-01T04:24:10;36.70;;;22.73;;
20415;SDS011;10367;52.202;5.996;2022-07-01T04:26:41;45.17;;;27.30;;
20415;SDS011;10367;52.202;5.996;2022-07-01T04:29:10;41.00;;;25.07;;
20415;SDS011;10367;52.202;5.996;2022-07-01T04:31:39;38.97;;;25.40;;
20415;SDS011;10367;52.202;5.996;2022-07-01T04:34:08;49.20;;;28.27;;
20415;SDS011;10367;52.202;5.996;2022-07-01T04:36:39;41.67;;;26.37;;
20415;SDS011;10367;52.202;5.996;2022-07-01T04:39:08;41.07;;;25.77;;
20415;SDS011;10367;52.202;5.996;2022-07-01T04:41:37;43.93;;;26.63;;
20415;SDS011;10367;52.202;5.996;2022-07-01T04:44:22;48.53;;;28.67;;
20415;SDS011;10367;52.202;5.996;2022-07-01T04:46:54;55.03;;;28.97;;
20415;SDS011;10367;52.202;5.996;2022-07-01T04:49:23;46.13;;;26.70;;
20415;SDS011;10367;52.202;5.996;2022-07-01T04:51:53;40.60;;;25.53;;
20415;SDS011;10367;52.202;5.996;2022-07-01T04:54:28;41.20;;;26.20;;
20415;SDS011;10367;52.202;5.996;2022-07-01T04:56:56;44.13;;;26.23;;
20415;SDS011;10367;52.202;5.996;2022-07-01T04:59:25;41.07;;;24.57;;
20415;SDS011;10367;52.202;5.996;2022-07-01T05:01:54;46.90;;;28.90;;
20415;SDS011;10367;52.202;5.996;2022-07-01T05:04:25;41.17;;;25.57;;
20415;SDS011;10367;52.202;5.996;2022-07-01T05:06:56;45.03;;;25.23;;
20415;SDS011;10367;52.202;5.996;2022-07-01T05:09:25;36.33;;;25.23;;
20415;SDS011;10367;52.202;5.996;2022-07-01T05:11:54;39.70;;;25.80;;
20415;SDS011;10367;52.202;5.996;2022-07-01T05:14:22;32.77;;;22.87;;
20415;SDS011;10367;52.202;5.996;2022-07-01T05:16:51;39.13;;;25.47;;
20415;SDS011;10367;52.202;5.996;2022-07-01T05:19:20;42.10;;;25.07;;
20415;SDS011;10367;52.202;5.996;2022-07-01T05:22:07;37.77;;;24.93;;
20415;SDS011;10367;52.202;5.996;2022-07-01T05:24:36;35.77;;;23.50;;
20415;SDS011;10367;52.202;5.996;2022-07-01T05:27:05;31.40;;;21.20;;
20415;SDS011;10367;52.202;5.996;2022-07-01T05:29:34;35.57;;;24.27;;
20415;SDS011;10367;52.202;5.996;2022-07-01T05:32:03;35.33;;;23.87;;
20415;SDS011;10367;52.202;5.996;2022-07-01T05:34:32;40.30;;;24.77;;
20415;SDS011;10367;52.202;5.996;2022-07-01T05:37:03;37.97;;;24.80;;
20415;SDS011;10367;52.202;5.996;2022-07-01T05:39:42;35.00;;;23.27;;
20415;SDS011;10367;52.202;5.996;2022-07-01T05:42:17;36.07;;;23.43;;
20415;SDS011;10367;52.202;5.996;2022-07-01T05:44:48;35.27;;;23.67;;
20415;SDS011;10367;52.202;5.996;2022-07-01T05:47:17;33.43;;;23.80;;
20415;SDS011;10367;52.202;5.996;2022-07-01T05:49:46;36.60;;;23.80;;
20415;SDS011;10367;52.202;5.996;2022-07-01T05:52:15;36.60;;;24.40;;
20415;SDS011;10367;52.202;5.996;2022-07-01T05:54:45;45.03;;;25.90;;
20415;SDS011;10367;52.202;5.996;2022-07-01T05:57:16;31.57;;;21.97;;
20415;SDS011;10367;52.202;5.996;2022-07-01T05:59:45;37.23;;;24.00;;
20415;SDS011;10367;52.202;5.996;2022-07-01T06:02:13;37.03;;;24.43;;
20415;SDS011;10367;52.202;5.996;2022-07-01T06:04:42;42.40;;;26.97;;
20415;SDS011;10367;52.202;5.996;2022-07-01T06:07:11;37.33;;;24.23;;
20415;SDS011;10367;52.202;5.996;2022-07-01T06:09:40;30.83;;;21.87;;
20415;SDS011;10367;52.202;5.996;2022-07-01T06:12:10;35.43;;;24.37;;
20415;SDS011;10367;52.202;5.996;2022-07-01T06:14:39;33.43;;;23.57;;
20415;SDS011;10367;52.202;5.996;2022-07-01T06:17:08;37.77;;;26.17;;
20415;SDS011;10367;52.202;5.996;2022-07-01T06:19:37;36.60;;;24.67;;
20415;SDS011;10367;52.202;5.996;2022-07-01T06:22:06;31.90;;;21.87;;
20415;SDS011;10367;52.202;5.996;2022-07-01T06:24:38;36.83;;;24.50;;
20415;SDS011;10367;52.202;5.996;2022-07-01T06:27:07;34.17;;;23.43;;
20415;SDS011;10367;52.202;5.996;2022-07-01T06:29:37;34.60;;;23.17;;
20415;SDS011;10367;52.202;5.996;2022-07-01T06:32:06;36.57;;;24.73;;
20415;SDS011;10367;52.202;5.996;2022-07-01T06:34:35;34.10;;;23.87;;
20415;SDS011;10367;52.202;5.996;2022-07-01T06:37:05;34.27;;;23.33;;
20415;SDS011;10367;52.202;5.996;2022-07-01T06:39:34;29.73;;;22.57;;
20415;SDS011;10367;52.202;5.996;2022-07-01T06:42:03;36.17;;;24.50;;
20415;SDS011;10367;52.202;5.996;2022-07-01T06:44:33;37.20;;;23.87;;
20415;SDS011;10367;52.202;5.996;2022-07-01T06:47:03;30.87;;;23.23;;
20415;SDS011;10367;52.202;5.996;2022-07-01T06:49:32;32.53;;;24.50;;
20415;SDS011;10367;52.202;5.996;2022-07-01T06:52:01;32.07;;;23.87;;
20415;SDS011;10367;52.202;5.996;2022-07-01T06:54:30;36.83;;;24.97;;
20415;SDS011;10367;52.202;5.996;2022-07-01T06:57:05;41.60;;;25.43;;
20415;SDS011;10367;52.202;5.996;2022-07-01T06:59:34;34.43;;;24.40;;
20415;SDS011;10367;52.202;5.996;2022-07-01T07:02:04;35.17;;;24.30;;
20415;SDS011;10367;52.202;5.996;2022-07-01T07:04:34;36.20;;;25.73;;
20415;SDS011;10367;52.202;5.996;2022-07-01T07:07:23;34.57;;;24.07;;
20415;SDS011;10367;52.202;5.996;2022-07-01T07:09:52;42.73;;;26.47;;
20415;SDS011;10367;52.202;5.996;2022-07-01T07:12:23;34.60;;;24.30;;
20415;SDS011;10367;52.202;5.996;2022-07-01T07:14:52;30.07;;;23.73;;
20415;SDS011;10367;52.202;5.996;2022-07-01T07:17:26;29.73;;;22.73;;
20415;SDS011;10367;52.202;5.996;2022-07-01T07:19:54;40.90;;;27.40;;
20415;SDS011;10367;52.202;5.996;2022-07-01T07:22:23;32.40;;;23.83;;
20415;SDS011;10367;52.202;5.996;2022-07-01T07:24:52;30.37;;;24.37;;
20415;SDS011;10367;52.202;5.996;2022-07-01T07:27:20;28.80;;;22.80;;
20415;SDS011;10367;52.202;5.996;2022-07-01T07:29:49;34.37;;;24.00;;
20415;SDS011;10367;52.202;5.996;2022-07-01T07:32:18;28.63;;;23.00;;
20415;SDS011;10367;52.202;5.996;2022-07-01T07:34:49;27.20;;;21.73;;
20415;SDS011;10367;52.202;5.996;2022-07-01T07:37:20;33.07;;;23.40;;
20415;SDS011;10367;52.202;5.996;2022-07-01T07:39:49;24.27;;;20.83;;
20415;SDS011;10367;52.202;5.996;2022-07-01T07:42:18;28.77;;;22.03;;
20415;SDS011;10367;52.202;5.996;2022-07-01T07:44:47;28.60;;;22.07;;
20415;SDS011;10367;52.202;5.996;2022-07-01T07:47:15;27.47;;;22.53;;
20415;SDS011;10367;52.202;5.996;2022-07-01T07:49:44;31.70;;;23.40;;
20415;SDS011;10367;52.202;5.996;2022-07-01T07:52:14;26.23;;;21.60;;
20415;SDS011;10367;52.202;5.996;2022-07-01T07:54:43;27.47;;;21.97;;
20415;SDS011;10367;52.202;5.996;2022-07-01T07:57:12;25.77;;;21.53;;
20415;SDS011;10367;52.202;5.996;2022-07-01T07:59:40;22.73;;;20.33;;
20415;SDS011;10367;52.202;5.996;2022-07-01T08:02:09;25.63;;;22.03;;
20415;SDS011;10367;52.202;5.996;2022-07-01T08:04:38;25.43;;;22.20;;
20415;SDS011;10367;52.202;5.996;2022-07-01T08:07:08;23.90;;;21.60;;
20415;SDS011;10367;52.202;5.996;2022-07-01T08:09:38;24.57;;;20.80;;
20415;SDS011;10367;52.202;5.996;2022-07-01T08:12:12;21.80;;;19.67;;
20415;SDS011;10367;52.202;5.996;2022-07-01T08:14:41;26.90;;;22.17;;
20415;SDS011;10367;52.202;5.996;2022-07-01T08:17:10;24.63;;;20.37;;
20415;SDS011;10367;52.202;5.996;2022-07-01T08:19:38;23.43;;;20.97;;
20415;SDS011;10367;52.202;5.996;2022-07-01T08:22:07;22.13;;;19.93;;
20415;SDS011;10367;52.202;5.996;2022-07-01T08:24:37;22.97;;;20.50;;
20415;SDS011;10367;52.202;5.996;2022-07-01T08:27:07;22.87;;;20.47;;
20415;SDS011;10367;52.202;5.996;2022-07-01T08:29:35;22.87;;;20.40;;
20415;SDS011;10367;52.202;5.996;2022-07-01T08:32:05;22.47;;;20.27;;
20415;SDS011;10367;52.202;5.996;2022-07-01T08:34:34;20.80;;;18.90;;
20415;SDS011;10367;52.202;5.996;2022-07-01T08:37:04;21.43;;;19.47;;
20415;SDS011;10367;52.202;5.996;2022-07-01T08:39:34;23.30;;;20.77;;
20415;SDS011;10367;52.202;5.996;2022-07-01T08:42:04;23.40;;;21.20;;
20415;SDS011;10367;52.202;5.996;2022-07-01T08:44:36;21.70;;;19.30;;
20415;SDS011;10367;52.202;5.996;2022-07-01T08:47:05;20.60;;;18.87;;
20415;SDS011;10367;52.202;5.996;2022-07-01T08:49:53;22.87;;;20.60;;
20415;SDS011;10367;52.202;5.996;2022-07-01T08:52:24;20.53;;;18.90;;
20415;SDS011;10367;52.202;5.996;2022-07-01T08:54:53;21.90;;;19.90;;
20415;SDS011;10367;52.202;5.996;2022-07-01T08:57:23;21.90;;;19.80;;
20415;SDS011;10367;52.202;5.996;2022-07-01T09:00:02;21.83;;;19.77;;
20415;SDS011;10367;52.202;5.996;2022-07-01T09:05:22;20.60;;;18.77;;
20415;SDS011;10367;52.202;5.996;2022-07-01T09:07:55;21.30;;;19.23;;
20415;SDS011;10367;52.202;5.996;2022-07-01T09:10:25;21.10;;;19.20;;
20415;SDS011;10367;52.202;5.996;2022-07-01T09:12:55;23.10;;;19.13;;
20415;SDS011;10367;52.202;5.996;2022-07-01T09:15:26;19.67;;;17.77;;
20415;SDS011;10367;52.202;5.996;2022-07-01T09:18:02;21.30;;;19.50;;
20415;SDS011;10367;52.202;5.996;2022-07-01T09:20:33;18.03;;;16.37;;
20415;SDS011;10367;52.202;5.996;2022-07-01T09:23:04;19.93;;;17.80;;
20415;SDS011;10367;52.202;5.996;2022-07-01T09:25:38;20.93;;;19.03;;
20415;SDS011;10367;52.202;5.996;2022-07-01T09:28:22;18.83;;;17.53;;
20415;SDS011;10367;52.202;5.996;2022-07-01T09:30:54;19.93;;;18.30;;
20415;SDS011;10367;52.202;5.996;2022-07-01T09:33:25;20.37;;;18.57;;
20415;SDS011;10367;52.202;5.996;2022-07-01T09:35:56;22.67;;;18.97;;
20415;SDS011;10367;52.202;5.996;2022-07-01T09:38:26;19.57;;;18.10;;
20415;SDS011;10367;52.202;5.996;2022-07-01T09:40:59;20.47;;;18.57;;
20415;SDS011;10367;52.202;5.996;2022-07-01T09:43:31;20.40;;;18.73;;
20415;SDS011;10367;52.202;5.996;2022-07-01T09:46:06;19.87;;;18.23;;
20415;SDS011;10367;52.202;5.996;2022-07-01T09:48:43;19.17;;;17.83;;
20415;SDS011;10367;52.202;5.996;2022-07-01T09:51:14;19.33;;;17.93;;
20415;SDS011;10367;52.202;5.996;2022-07-01T09:53:46;18.07;;;16.80;;
20415;SDS011;10367;52.202;5.996;2022-07-01T09:56:15;19.53;;;17.93;;
20415;SDS011;10367;52.202;5.996;2022-07-01T09:58:45;20.47;;;18.87;;
20415;SDS011;10367;52.202;5.996;2022-07-01T10:01:14;19.33;;;17.90;;
20415;SDS011;10367;52.202;5.996;2022-07-01T10:03:43;18.27;;;17.07;;
20415;SDS011;10367;52.202;5.996;2022-07-01T10:06:19;19.00;;;17.50;;
20415;SDS011;10367;52.202;5.996;2022-07-01T10:09:02;19.20;;;17.83;;
20415;SDS011;10367;52.202;5.996;2022-07-01T10:14:58;20.93;;;19.23;;
20415;SDS011;10367;52.202;5.996;2022-07-01T10:17:28;20.27;;;18.60;;
20415;SDS011;10367;52.202;5.996;2022-07-01T10:20:06;22.17;;;20.30;;
20415;SDS011;10367;52.202;5.996;2022-07-01T10:22:37;21.03;;;19.27;;
20415;SDS011;10367;52.202;5.996;2022-07-01T10:28:13;19.87;;;18.60;;
20415;SDS011;10367;52.202;5.996;2022-07-01T10:30:58;20.03;;;18.53;;
20415;SDS011;10367;52.202;5.996;2022-07-01T10:33:32;21.83;;;19.97;;
20415;SDS011;10367;52.202;5.996;2022-07-01T10:36:09;22.80;;;21.00;;
20415;SDS011;10367;52.202;5.996;2022-07-01T10:41:56;20.40;;;18.63;;
20415;SDS011;10367;52.202;5.996;2022-07-01T10:47:29;20.57;;;19.27;;
20415;SDS011;10367;52.202;5.996;2022-07-01T10:49:58;22.57;;;20.83;;
20415;SDS011;10367;52.202;5.996;2022-07-01T10:52:33;19.90;;;18.70;;
20415;SDS011;10367;52.202;5.996;2022-07-01T10:55:03;22.33;;;20.70;;
20415;SDS011;10367;52.202;5.996;2022-07-01T10:57:34;21.47;;;19.83;;
20415;SDS011;10367;52.202;5.996;2022-07-01T11:00:25;21.00;;;19.33;;
20415;SDS011;10367;52.202;5.996;2022-07-01T11:03:10;21.57;;;19.90;;
20415;SDS011;10367;52.202;5.996;2022-07-01T11:05:46;18.93;;;17.83;;
20415;SDS011;10367;52.202;5.996;2022-07-01T11:08:17;20.43;;;19.20;;
20415;SDS011;10367;52.202;5.996;2022-07-01T11:10:59;21.23;;;19.73;;
20415;SDS011;10367;52.202;5.996;2022-07-01T11:13:31;20.90;;;19.50;;
20415;SDS011;10367;52.202;5.996;2022-07-01T11:16:00;21.23;;;19.57;;
20415;SDS011;10367;52.202;5.996;2022-07-01T11:18:31;20.20;;;18.90;;
20415;SDS011;10367;52.202;5.996;2022-07-01T11:21:02;20.43;;;19.07;;
20415;SDS011;10367;52.202;5.996;2022-07-01T11:23:32;20.90;;;19.50;;
20415;SDS011;10367;52.202;5.996;2022-07-01T11:26:07;21.63;;;20.07;;
20415;SDS011;10367;52.202;5.996;2022-07-01T11:28:47;21.80;;;20.07;;
20415;SDS011;10367;52.202;5.996;2022-07-01T11:31:32;20.40;;;19.03;;
20415;SDS011;10367;52.202;5.996;2022-07-01T11:34:03;21.83;;;20.17;;
20415;SDS011;10367;52.202;5.996;2022-07-01T11:36:33;21.60;;;20.07;;
20415;SDS011;10367;52.202;5.996;2022-07-01T11:39:21;19.90;;;18.47;;
20415;SDS011;10367;52.202;5.996;2022-07-01T11:42:00;20.40;;;19.00;;
20415;SDS011;10367;52.202;5.996;2022-07-01T11:44:32;19.77;;;18.47;;
20415;SDS011;10367;52.202;5.996;2022-07-01T11:47:03;21.40;;;19.77;;
20415;SDS011;10367;52.202;5.996;2022-07-01T11:49:44;20.30;;;18.87;;
20415;SDS011;10367;52.202;5.996;2022-07-01T11:52:13;18.80;;;17.63;;
20415;SDS011;10367;52.202;5.996;2022-07-01T11:54:44;18.33;;;17.20;;
20415;SDS011;10367;52.202;5.996;2022-07-01T11:57:15;18.90;;;17.70;;
20415;SDS011;10367;52.202;5.996;2022-07-01T11:59:46;19.37;;;18.20;;
20415;SDS011;10367;52.202;5.996;2022-07-01T12:02:20;19.53;;;17.90;;
20415;SDS011;10367;52.202;5.996;2022-07-01T12:04:52;21.17;;;19.43;;
20415;SDS011;10367;52.202;5.996;2022-07-01T12:07:23;22.07;;;20.27;;
20415;SDS011;10367;52.202;5.996;2022-07-01T12:09:54;19.23;;;18.03;;
20415;SDS011;10367;52.202;5.996;2022-07-01T12:12:23;20.90;;;19.33;;
20415;SDS011;10367;52.202;5.996;2022-07-01T12:14:53;21.47;;;19.90;;
20415;SDS011;10367;52.202;5.996;2022-07-01T12:17:29;23.70;;;21.57;;
20415;SDS011;10367;52.202;5.996;2022-07-01T12:20:07;23.33;;;21.40;;
20415;SDS011;10367;52.202;5.996;2022-07-01T12:22:37;22.00;;;20.33;;
20415;SDS011;10367;52.202;5.996;2022-07-01T12:25:07;24.10;;;22.10;;
20415;SDS011;10367;52.202;5.996;2022-07-01T12:27:38;22.03;;;20.37;;
20415;SDS011;10367;52.202;5.996;2022-07-01T12:30:11;22.27;;;20.57;;
20415;SDS011;10367;52.202;5.996;2022-07-01T12:32:50;21.70;;;20.00;;
20415;SDS011;10367;52.202;5.996;2022-07-01T12:35:24;20.30;;;18.87;;
20415;SDS011;10367;52.202;5.996;2022-07-01T12:38:02;22.17;;;20.50;;
20415;SDS011;10367;52.202;5.996;2022-07-01T12:40:34;20.40;;;19.10;;
20415;SDS011;10367;52.202;5.996;2022-07-01T12:43:03;22.23;;;20.27;;
20415;SDS011;10367;52.202;5.996;2022-07-01T12:45:33;20.77;;;19.47;;
20415;SDS011;10367;52.202;5.996;2022-07-01T12:48:11;19.67;;;18.47;;
20415;SDS011;10367;52.202;5.996;2022-07-01T12:50:41;21.03;;;19.63;;
20415;SDS011;10367;52.202;5.996;2022-07-01T12:53:17;20.27;;;18.97;;
20415;SDS011;10367;52.202;5.996;2022-07-01T12:55:48;20.57;;;19.17;;
20415;SDS011;10367;52.202;5.996;2022-07-01T12:58:20;20.00;;;18.70;;
20415;SDS011;10367;52.202;5.996;2022-07-01T13:00:50;19.60;;;18.43;;
20415;SDS011;10367;52.202;5.996;2022-07-01T13:03:20;19.57;;;18.47;;
20415;SDS011;10367;52.202;5.996;2022-07-01T13:05:52;20.50;;;18.83;;
20415;SDS011;10367;52.202;5.996;2022-07-01T13:08:22;21.57;;;20.03;;
20415;SDS011;10367;52.202;5.996;2022-07-01T13:10:50;20.63;;;19.10;;
20415;SDS011;10367;52.202;5.996;2022-07-01T13:13:19;20.33;;;18.87;;
20415;SDS011;10367;52.202;5.996;2022-07-01T13:15:48;19.57;;;18.27;;
20415;SDS011;10367;52.202;5.996;2022-07-01T13:18:22;21.30;;;19.67;;
20415;SDS011;10367;52.202;5.996;2022-07-01T13:20:52;20.30;;;18.87;;
20415;SDS011;10367;52.202;5.996;2022-07-01T13:23:24;20.40;;;18.87;;
20415;SDS011;10367;52.202;5.996;2022-07-01T13:25:52;21.17;;;19.70;;
20415;SDS011;10367;52.202;5.996;2022-07-01T13:28:21;20.17;;;18.57;;
20415;SDS011;10367;52.202;5.996;2022-07-01T13:30:50;21.07;;;19.47;;
20415;SDS011;10367;52.202;5.996;2022-07-01T13:33:23;20.87;;;19.47;;
20415;SDS011;10367;52.202;5.996;2022-07-01T13:35:56;21.47;;;19.90;;
20415;SDS011;10367;52.202;5.996;2022-07-01T13:38:25;20.33;;;18.63;;
20415;SDS011;10367;52.202;5.996;2022-07-01T13:40:54;20.70;;;19.30;;
20415;SDS011;10367;52.202;5.996;2022-07-01T13:43:23;20.97;;;19.30;;
20415;SDS011;10367;52.202;5.996;2022-07-01T13:45:52;21.87;;;20.17;;
20415;SDS011;10367;52.202;5.996;2022-07-01T13:48:21;20.63;;;19.27;;
20415;SDS011;10367;52.202;5.996;2022-07-01T13:50:49;21.23;;;19.70;;
20415;SDS011;10367;52.202;5.996;2022-07-01T13:53:20;19.90;;;18.70;;
20415;SDS011;10367;52.202;5.996;2022-07-01T13:55:48;19.87;;;18.47;;
20415;SDS011;10367;52.202;5.996;2022-07-01T13:58:17;20.47;;;19.00;;
20415;SDS011;10367;52.202;5.996;2022-07-01T14:00:46;20.03;;;18.53;;
20415;SDS011;10367;52.202;5.996;2022-07-01T14:03:15;19.93;;;18.50;;
20415;SDS011;10367;52.202;5.996;2022-07-01T14:05:44;22.87;;;20.77;;
20415;SDS011;10367;52.202;5.996;2022-07-01T14:08:13;20.37;;;19.07;;
20415;SDS011;10367;52.202;5.996;2022-07-01T14:10:47;22.30;;;20.53;;
20415;SDS011;10367;52.202;5.996;2022-07-01T14:13:16;21.03;;;19.43;;
20415;SDS011;10367;52.202;5.996;2022-07-01T14:15:47;20.43;;;19.03;;
20415;SDS011;10367;52.202;5.996;2022-07-01T14:18:16;20.37;;;19.00;;
20415;SDS011;10367;52.202;5.996;2022-07-01T14:20:45;21.00;;;19.53;;
20415;SDS011;10367;52.202;5.996;2022-07-01T14:23:14;21.37;;;19.83;;
20415;SDS011;10367;52.202;5.996;2022-07-01T14:25:45;20.67;;;19.20;;
20415;SDS011;10367;52.202;5.996;2022-07-01T14:28:15;19.20;;;17.87;;
20415;SDS011;10367;52.202;5.996;2022-07-01T14:30:44;21.33;;;19.57;;
20415;SDS011;10367;52.202;5.996;2022-07-01T14:33:12;21.50;;;19.70;;
20415;SDS011;10367;52.202;5.996;2022-07-01T14:35:42;22.53;;;20.63;;
20415;SDS011;10367;52.202;5.996;2022-07-01T14:38:11;22.17;;;20.33;;
20415;SDS011;10367;52.202;5.996;2022-07-01T14:40:41;22.27;;;20.53;;
20415;SDS011;10367;52.202;5.996;2022-07-01T14:43:10;21.30;;;19.70;;
20415;SDS011;10367;52.202;5.996;2022-07-01T14:45:40;21.67;;;20.07;;
20415;SDS011;10367;52.202;5.996;2022-07-01T14:48:14;21.70;;;20.10;;
20415;SDS011;10367;52.202;5.996;2022-07-01T14:50:46;21.37;;;19.83;;
20415;SDS011;10367;52.202;5.996;2022-07-01T14:53:15;21.73;;;20.10;;
20415;SDS011;10367;52.202;5.996;2022-07-01T14:55:45;20.50;;;18.67;;
20415;SDS011;10367;52.202;5.996;2022-07-01T14:58:14;20.57;;;19.07;;